Flight Track Log - Related Links

Times and Time Zones

All times are in EDT time to prevent confusion due to time zone crossing. See the SKW6492 flight status page for this flight to view local times or setup timezone preferences in your user account.

Time Position Orientation Groundspeed Altitude Reporting Facility
EDT Latitude Longitude Course Direction KTS MPH feet Rate Location/Type
Wed 04:19:00 PM 30.4047 -97.6308 291° West  Level FlightAware Approximate
Wed 04:19:15 PM 30.1906 -97.8108 291° West 288 331 5,500  Level Houston Center
Wed 04:20:00 PM 30.4463 -97.7523 293° West  Level FlightAware Approximate
Wed 04:20:18 PM 30.2581 -97.8872 316° Northwest 289 333 8,500  Level Houston Center
Wed 04:21:00 PM 30.4902 -97.8728 293° West  Level FlightAware Approximate
Wed 04:21:20 PM 30.2950 -97.9689 298° West 290 334 10,600  Level Houston Center
Wed 04:22:00 PM 30.5316 -97.9946 291° West  Level FlightAware Approximate
Wed 04:22:22 PM 30.3467 -98.0517 306° West 306 352 12,200  Level Houston Center
Wed 04:23:00 PM 30.5723 -98.1167 291° West  Level FlightAware Approximate
Wed 04:23:24 PM 30.4017 -98.1419 305° West 332 382 14,200  Level Houston Center
Wed 04:24:00 PM 30.6130 -98.2389 291° West  Level FlightAware Approximate
Wed 04:24:26 PM 30.4736 -98.2192 317° Northwest 354 407 16,500  Level Houston Center
Wed 04:25:28 PM 30.5558 -98.2869 325° Northwest 355 409 18,300 1,790 Climbing Houston Center
Wed 04:26:30 PM 30.6397 -98.3519 326° Northwest 357 411 20,200 1,645 Climbing Houston Center
Wed 04:27:32 PM 30.7233 -98.4208 325° Northwest 362 417 21,700 1,632 Climbing Houston Center
Wed 04:28:35 PM 30.8244 -98.4997 326° Northwest 368 423 23,600 1,536 Climbing Houston Center
Wed 04:29:37 PM 30.9106 -98.5697 325° Northwest 371 427 24,900 1,210 Climbing Houston Center
Wed 04:30:39 PM 30.9986 -98.6400 326° Northwest 377 434 26,100 1,161 Climbing Houston Center
Wed 04:31:41 PM 31.0872 -98.7122 325° Northwest 381 438 27,300 1,065 Climbing Houston Center
Wed 04:32:43 PM 31.1750 -98.7861 324° Northwest 385 443 28,300 919 Climbing Houston Center
Wed 04:33:45 PM 31.2647 -98.8586 325° Northwest 387 445 29,200 968 Climbing Houston Center
Wed 04:34:47 PM 31.3561 -98.9319 326° Northwest 392 451 30,300 944 Climbing Houston Center
Wed 04:35:14 PM 31.4061 -98.9736 325° Northwest 387 445 30,600 621 Climbing Fort Worth Center
Wed 04:36:14 PM 31.4950 -99.0481 324° Northwest 392 451 31,200 650 Climbing Fort Worth Center
Wed 04:37:14 PM 31.5756 -99.1153 325° Northwest 392 451 31,900 850 Climbing Fort Worth Center
Wed 04:38:14 PM 31.6664 -99.1878 326° Northwest 397 457 32,900 850 Climbing Fort Worth Center
Wed 04:39:14 PM 31.7569 -99.2628 325° Northwest 397 457 33,600 700 Climbing Fort Worth Center
Wed 04:40:14 PM 31.8458 -99.3356 325° Northwest 397 457 34,300 650 Climbing Fort Worth Center
Wed 04:41:14 PM 31.9322 -99.4083 324° Northwest 391 450 34,900 600 Climbing Fort Worth Center
Wed 04:42:14 PM 32.0208 -99.4789 326° Northwest 391 450 35,500 600 Climbing Fort Worth Center
Wed 04:43:14 PM 32.1114 -99.5547 325° Northwest 391 450 36,100 450 Climbing Fort Worth Center
Wed 04:44:14 PM 32.2000 -99.6278 325° Northwest 391 450 36,400 350 Climbing Fort Worth Center
Wed 04:45:14 PM 32.2906 -99.7039 325° Northwest 391 450 36,800 500 Climbing Fort Worth Center
Wed 04:46:14 PM 32.3789 -99.7775 325° Northwest 391 450 37,400 600 Climbing Fort Worth Center
Wed 04:47:14 PM 32.4631 -99.8486 325° Northwest 391 450 38,000 300 Climbing Fort Worth Center
Wed 04:48:14 PM 32.5536 -99.9125 329° Northwest 385 443 38,000  Level Fort Worth Center
Wed 04:50:14 PM 32.7639 -100.0494 331° Northwest 385 443 38,000  Level Fort Worth Center
Wed 04:51:14 PM 32.8542 -100.1214 326° Northwest 390 449 38,000  Level Fort Worth Center
Wed 04:52:14 PM 32.9358 -100.2031 320° Northwest 390 449 38,000  Level Fort Worth Center
Wed 04:53:14 PM 33.0217 -100.2850 321° Northwest 390 449 38,000  Level Fort Worth Center
Wed 04:54:14 PM 33.1053 -100.3694 320° Northwest 396 456 38,000  Level Fort Worth Center
Wed 04:55:14 PM 33.1931 -100.4494 323° Northwest 396 456 38,000  Level Fort Worth Center
Wed 04:56:14 PM 33.2786 -100.5342 320° Northwest 396 456 38,000  Level Fort Worth Center
Wed 04:57:14 PM 33.3622 -100.6192 320° Northwest 396 456 38,000  Level Fort Worth Center
Wed 04:58:14 PM 33.4433 -100.7069 318° Northwest 396 456 38,000  Level Fort Worth Center
Wed 04:59:14 PM 33.5289 -100.7897 321° Northwest 401 461 38,000  Level Fort Worth Center
Wed 05:00:14 PM 33.5864 -100.8967 303° West 386 444 38,000  Level Fort Worth Center
Wed 05:01:14 PM 33.6417 -101.0036 302° West 386 444 38,000  Level Fort Worth Center
Wed 05:02:14 PM 33.7014 -101.1111 304° West 385 443 38,000  Level Fort Worth Center
Wed 05:03:14 PM 33.7522 -101.2181 300° West 385 443 38,000  Level Fort Worth Center
Wed 05:04:14 PM 33.8075 -101.3281 301° West 385 443 38,000  Level Fort Worth Center
Wed 05:05:14 PM 33.8644 -101.4356 303° West 385 443 38,000  Level Fort Worth Center
Wed 05:06:14 PM 33.9172 -101.5431 301° West 385 443 38,000  Level Fort Worth Center
Wed 05:07:14 PM 33.9742 -101.6561 301° West 390 449 38,000  Level Fort Worth Center
Wed 05:08:14 PM 34.0289 -101.7639 302° West 390 449 38,000  Level Fort Worth Center
Wed 05:09:14 PM 34.0833 -101.8744 301° West 390 449 38,000  Level Fort Worth Center
Wed 05:10:14 PM 34.1419 -101.9831 303° West 397 457 38,000  Level Fort Worth Center
Wed 05:11:14 PM 34.1942 -102.0936 300° West 387 445 38,000  Level Fort Worth Center
Wed 05:11:57 PM 34.2294 -102.1617 302° West 387 445 38,000  Level Albuquerque Center
Wed 05:12:59 PM 34.2853 -102.2728 301° West 386 444 38,000  Level Albuquerque Center
Wed 05:14:01 PM 34.3411 -102.3850 301° West 387 445 38,000  Level Albuquerque Center
Wed 05:15:03 PM 34.4089 -102.5206 301° West 390 449 38,000  Level Albuquerque Center
Wed 05:16:05 PM 34.4639 -102.6331 301° West 389 448 38,000  Level Albuquerque Center
Wed 05:17:07 PM 34.5156 -102.7361 301° West 388 447 38,000  Level Albuquerque Center
Wed 05:18:09 PM 34.5819 -102.8706 301° West 394 453 38,000  Level Albuquerque Center
Wed 05:19:11 PM 34.6386 -102.9858 301° West 395 455 38,000  Level Albuquerque Center
Wed 05:20:13 PM 34.6947 -103.1017 301° West 395 455 38,000  Level Albuquerque Center
Wed 05:21:15 PM 34.7522 -103.2197 301° West 400 460 38,000  Level Albuquerque Center
Wed 05:22:17 PM 34.8097 -103.3369 301° West 401 461 38,000  Level Albuquerque Center
Wed 05:23:19 PM 34.8661 -103.4542 300° West 398 458 38,000  Level Albuquerque Center
Wed 05:24:21 PM 34.9533 -103.5478 319° Northwest 413 475 38,000  Level Albuquerque Center
Wed 05:25:23 PM 35.0681 -103.6428 326° Northwest 423 487 38,000  Level Albuquerque Center
Wed 05:26:25 PM 35.1653 -103.7236 326° Northwest 421 484 38,000  Level Albuquerque Center
Wed 05:27:27 PM 35.2639 -103.8067 325° Northwest 426 490 38,000  Level Albuquerque Center
Wed 05:28:29 PM 35.3611 -103.8889 325° Northwest 425 489 38,000  Level Albuquerque Center
Wed 05:29:31 PM 35.4594 -103.9703 326° Northwest 427 491 38,000  Level Albuquerque Center
Wed 05:30:33 PM 35.5733 -104.0683 325° Northwest 429 494 38,000  Level Albuquerque Center
Wed 05:31:35 PM 35.6722 -104.1522 325° Northwest 429 494 38,000  Level Albuquerque Center
Wed 05:32:37 PM 35.7711 -104.2369 325° Northwest 431 496 38,000  Level Albuquerque Center
Wed 05:33:39 PM 35.8719 -104.3219 326° Northwest 434 499 38,000  Level Albuquerque Center
Wed 05:34:41 PM 35.9703 -104.4083 325° Northwest 432 497 38,000  Level Albuquerque Center
Wed 05:35:43 PM 36.0692 -104.4936 325° Northwest 430 495 38,000  Level Albuquerque Center
Wed 05:36:45 PM 36.1706 -104.5789 326° Northwest 434 499 38,000  Level Albuquerque Center
Wed 05:37:47 PM 36.2867 -104.6778 326° Northwest 431 496 38,000  Level Albuquerque Center
Wed 05:38:49 PM 36.3858 -104.7644 325° Northwest 433 498 38,000  Level Albuquerque Center
Wed 05:39:51 PM 36.4856 -104.8503 325° Northwest 433 498 38,000  Level Albuquerque Center
Wed 05:40:52 PM 36.5858 -104.9397 324° Northwest 437 503 38,000  Level Albuquerque Center
Wed 05:41:54 PM 36.6853 -105.0264 325° Northwest 435 501 38,000  Level Albuquerque Center
Wed 05:42:56 PM 36.7867 -105.1086 327° Northwest 439 505 38,000  Level Albuquerque Center
Wed 05:43:58 PM 36.9017 -105.2022 327° Northwest 440 506 38,000  Level Albuquerque Center
Wed 05:44:43 PM 36.9686 -105.2575 327° Northwest 441 507 38,000  Level Denver Center
Wed 05:45:45 PM 37.0847 -105.3525 327° Northwest 445 512 38,000  Level Denver Center
Wed 05:46:47 PM 37.1842 -105.4344 327° Northwest 445 512 38,000  Level Denver Center
Wed 05:47:49 PM 37.2967 -105.5269 327° Northwest 445 512 38,000  Level Denver Center
Wed 05:48:50 PM 37.3967 -105.6097 327° Northwest 448 516 38,000  Level Denver Center
Wed 05:49:52 PM 37.5128 -105.7058 327° Northwest 448 516 38,000  Level Denver Center
Wed 05:50:54 PM 37.6189 -105.7939 327° Northwest 452 520 38,000  Level Denver Center
Wed 05:51:56 PM 37.7197 -105.8783 326° Northwest 453 521 38,000  Level Denver Center
Wed 05:52:58 PM 37.8367 -105.9775 326° Northwest 453 521 38,000  Level Denver Center
Wed 05:53:59 PM 37.9397 -106.0636 327° Northwest 460 529 38,000  Level Denver Center
Wed 05:55:01 PM 38.0586 -106.1639 326° Northwest 458 527 38,000  Level Denver Center
Wed 05:56:03 PM 38.1606 -106.2511 326° Northwest 460 529 38,000  Level Denver Center
Wed 05:57:05 PM 38.2689 -106.3408 327° Northwest 463 533 38,000  Level Denver Center
Wed 05:58:07 PM 38.3747 -106.4317 326° Northwest 458 527 38,000  Level Denver Center
Wed 05:59:09 PM 38.4811 -106.5242 326° Northwest 461 531 38,000  Level Denver Center
Wed 06:00:11 PM 38.5883 -106.6147 327° Northwest 460 529 38,000  Level Denver Center
Wed 06:01:13 PM 38.7178 -106.7250 326° Northwest 464 534 38,000  Level Denver Center
Wed 06:02:14 PM 38.8039 -106.8006 326° Northwest 466 536 38,000  Level Denver Center
Wed 06:03:16 PM 38.9408 -106.9200 326° Northwest 466 536 38,000  Level Denver Center
Wed 06:04:18 PM 39.0431 -107.0106 325° Northwest 467 537 38,000  Level Denver Center
Wed 06:05:20 PM 39.1625 -107.1156 326° Northwest 464 534 38,000  Level Denver Center
Wed 06:06:22 PM 39.2664 -107.2061 326° Northwest 471 542 38,000  Level Denver Center
Wed 06:07:24 PM 39.3694 -107.2961 326° Northwest 468 539 38,000  Level Denver Center
Wed 06:08:26 PM 39.4881 -107.4042 325° Northwest 468 539 38,000  Level Denver Center
Wed 06:09:28 PM 39.5914 -107.4950 326° Northwest 469 540 38,000  Level Denver Center
Wed 06:10:30 PM 39.7133 -107.6019 326° Northwest 473 544 38,000  Level Denver Center
Wed 06:11:32 PM 39.8292 -107.6594 339° North 477 549 38,000  Level Denver Center
Wed 06:12:34 PM 39.9719 -107.6267 10° North 472 543 38,000 -435 Level Denver Center
Wed 06:13:36 PM 40.0958 -107.6136 North 471 542 37,100 -927 Descending Denver Center
Wed 06:14:37 PM 40.2344 -107.6206 358° North 453 521 36,100 -927 Descending Denver Center
Wed 06:15:39 PM 40.3472 -107.6250 358° North 438 504 35,200 -1,161 Descending Denver Center
Wed 06:16:41 PM 40.4722 -107.5986 North 421 484 33,700 -1,065 Descending Denver Center
Wed 06:17:43 PM 40.5419 -107.5000 47° Northeast 388 447 33,000 -339 Descending Denver Center
Wed 06:18:45 PM 40.6089 -107.3775 54° Northeast 370 426 33,000 -242 Level Denver Center
Wed 06:19:47 PM 40.6667 -107.2692 55° Northeast 378 435 32,500 -1,065 Descending Denver Center
Wed 06:20:49 PM 40.7289 -107.1500 55° Northeast 378 435 30,800 -1,500 Descending Denver Center
Wed 06:21:51 PM 40.7856 -107.0364 57° Northeast 373 429 29,400 -1,500 Descending Denver Center
Wed 06:22:53 PM 40.8506 -106.9069 56° Northeast 376 433 27,700 -1,161 Descending Denver Center
Wed 06:23:55 PM 40.9069 -106.8003 55° Northeast 371 427 27,000 -341 Descending Denver Center
Wed 06:24:56 PM 40.9669 -106.6858 55° Northeast 345 397 27,000  Level Denver Center
Wed 06:26:11 PM 40.9897 -106.5483 78° East 347 399 27,000  Level Denver Center
Wed 06:27:13 PM 41.0011 -106.4033 84° East 356 410 27,000  Level Denver Center
Wed 06:28:15 PM 41.0106 -106.2764 84° East 363 418 27,000 -242 Level Denver Center
Wed 06:29:17 PM 41.0253 -106.1336 82° East 357 411 26,500 -585 Descending Denver Center
Wed 06:30:18 PM 41.0106 -106.0217 100° East 350 403 25,800 -732 Descending Denver Center
Wed 06:31:20 PM 40.9167 -105.9894 165° South 354 407 25,000 -726 Descending Denver Center
Wed 06:32:22 PM 40.8183 -105.9825 177° South 354 407 24,300 -484 Descending Denver Center
Wed 06:33:24 PM 40.7183 -105.9856 181° South 357 411 24,000 -145 Descending Denver Center
Wed 06:34:26 PM 40.6114 -105.9869 181° South 378 435 24,000  Level Denver Center
Wed 06:35:28 PM 40.4853 -105.9914 182° South 376 433 24,000  Level Denver Center
Wed 06:36:30 PM 40.3872 -106.0117 189° South 367 422 24,000  Level Denver Center
Wed 06:37:44 PM 40.3519 -106.1292 249° West 359 413 24,000  Level Denver Center
Wed 06:38:46 PM 40.3703 -106.3017 278° West 368 423 24,000  Level Denver Center
Wed 06:39:48 PM 40.4064 -106.4142 293° West 369 425 24,000  Level Denver Center
Wed 06:40:50 PM 40.4878 -106.3739 21° North 321 369 24,000  Level Denver Center
Wed 06:41:52 PM 40.4742 -106.2625 99° East 325 374 24,000  Level Denver Center
Wed 06:42:54 PM 40.4594 -106.1339 99° East 328 377 24,000  Level Denver Center
Wed 06:43:56 PM 40.4472 -106.0161 98° East 325 374 24,000  Level Denver Center
Wed 06:44:58 PM 40.4664 -105.9019 78° East 339 390 24,000  Level Denver Center
Wed 06:46:00 PM 40.5575 -105.9203 351° North 365 420 24,000  Level Denver Center
Wed 06:47:01 PM 40.5822 -106.0556 284° West 383 441 24,000  Level Denver Center
Wed 06:48:03 PM 40.5972 -106.2083 277° West 374 430 24,000  Level Denver Center
Wed 06:49:05 PM 40.6069 -106.3358 276° West 368 423 24,000  Level Denver Center
Wed 06:50:07 PM 40.5167 -106.3942 206° Southwest 351 404 24,000  Level Denver Center
Wed 06:51:09 PM 40.4744 -106.2978 120° Southeast 333 383 24,000  Level Denver Center
Wed 06:52:11 PM 40.4622 -106.1636 97° East 335 386 24,000  Level Denver Center
Wed 06:53:13 PM 40.4508 -106.0525 98° East 331 381 24,000  Level Denver Center
Wed 06:54:14 PM 40.4419 -105.9556 97° East 332 382 24,000 -390 Level Denver Center
Wed 06:55:16 PM 40.5325 -105.8911 28° Northeast 346 398 23,200 -1,161 Descending Denver Center
Wed 06:56:18 PM 40.5989 -105.9625 321° Northwest 348 400 21,600 -1,210 Descending Denver Center
Wed 06:57:20 PM 40.6336 -106.1039 288° West 340 391 20,700 -871 Descending Denver Center
Wed 06:58:22 PM 40.6578 -106.2125 286° West 316 364 19,800 -823 Descending Denver Center
Wed 06:59:24 PM 40.6600 -106.3281 271° West 342 394 19,000 -387 Descending Denver Center
Wed 07:00:26 PM 40.5894 -106.3964 216° Southwest 322 371 19,000  Level Denver Center
Wed 07:01:27 PM 40.5214 -106.4706 220° Southwest 318 366 19,000  Level Denver Center
Wed 07:02:29 PM 40.4422 -106.5242 207° Southwest 327 376 19,000  Level Denver Center
Wed 07:03:31 PM 40.3672 -106.4881 160° South 314 361 19,000  Level Denver Center
Wed 07:04:33 PM 40.3431 -106.3583 104° East 310 357 19,000  Level Denver Center
Wed 07:05:35 PM 40.3219 -106.2419 103° East 325 374 19,000  Level Denver Center
Wed 07:06:37 PM 40.3025 -106.1242 102° East 329 379 19,000  Level Denver Center
Wed 07:07:39 PM 40.2878 -106.0106 100° East 322 371 19,000  Level Denver Center
Wed 07:08:41 PM 40.3058 -105.9111 77° East 285 328 19,000  Level Denver Center
Wed 07:09:42 PM 40.3231 -105.8072 78° East 287 330 19,000  Level Denver Center
Wed 07:10:44 PM 40.3369 -105.7003 80° East 293 337 19,000 -145 Level Denver Center
Wed 07:11:46 PM 40.3519 -105.5928 80° East 297 342 18,700 -726 Descending Denver Center
Wed 07:12:48 PM 40.3675 -105.4711 80° East 286 329 17,500 -1,452 Descending Denver Center
Wed 07:13:50 PM 40.3711 -105.3636 87° East 281 323 15,700 -1,597 Descending Denver Center
Wed 07:14:52 PM 40.3714 -105.2642 90° East 281 323 14,200 -871 Descending Denver Center
Wed 07:15:54 PM 40.3733 -105.1744 88° East 255 293 13,900 -581 Descending Denver Center
Wed 07:16:56 PM 40.3650 -105.0919 98° East 222 255 13,000 -435 Descending Denver Center
Wed 07:17:58 PM 40.3553 -105.0219 100° East 202 232 13,000  Level Denver Center
Wed 07:19:00 PM 40.3417 -104.9392 102° East 211 243 13,000  Level Denver Center
Wed 07:20:02 PM 40.3317 -104.8594 99° East 220 253 13,000 -194 Level Denver Center
Wed 07:21:04 PM 40.3142 -104.7872 108° East 211 243 12,600 -780 Descending Denver Center
Wed 07:22:05 PM 40.2761 -104.7233 128° Southeast 212 244 11,400 -1,171 Descending Denver Center
Wed 07:23:07 PM 40.2194 -104.6967 160° South 218 251 10,200 -677 Descending Denver Center
Wed 07:24:09 PM 40.1558 -104.6836 171° South 217 250 10,000 -484 Descending Denver Center
Wed 07:25:11 PM 40.0931 -104.6844 181° South 223 257 9,200 -968 Descending Denver Center
Wed 07:26:13 PM 40.0339 -104.6850 180° South 216 249 8,000 -1,161 Descending Denver Center

Login

Don't have an account? Register now (free) for customized features, flight alerts, and more!